Time;durP1;ratioP1;P1;durP2;ratioP2;P2;SDS_P1;SDS_P2;PMS_P1;PMS_P2;Temp;Humidity;BMP_temperature;BMP_pressure;BME280_temperature;BME280_humidity;BME280_pressure;Samples;Min_cycle;Max_cycle;Signal;HPM_P1;HPM_P2
2023/04/03 00:00:20;;;;;;;3.00;1.60;;;;;;;2.24;67.51;101040.54;107310;1255;1016291;-73
2023/04/03 00:05:13;;;;;;;2.80;1.40;;;;;;;2.17;67.21;101042.34;107244;1257;1016460;-72
2023/04/03 00:10:06;;;;;;;1.10;0.80;;;;;;;2.10;66.79;101047.45;107161;1259;1016268;-72
2023/04/03 00:14:59;;;;;;;1.20;1.10;;;;;;;2.05;66.85;101049.53;107250;1257;1018992;-72
2023/04/03 00:19:52;;;;;;;2.40;1.30;;;;;;;1.99;66.88;101052.23;107223;1254;1015969;-72
2023/04/03 00:24:45;;;;;;;3.00;1.50;;;;;;;1.90;66.75;101053.83;107206;1259;1016424;-72
2023/04/03 00:29:38;;;;;;;2.50;1.30;;;;;;;1.82;66.62;101058.02;107275;1253;1016803;-72
2023/04/03 00:34:31;;;;;;;3.40;1.50;;;;;;;1.75;66.35;101057.05;107180;1254;1016431;-73
2023/04/03 00:39:24;;;;;;;3.30;1.40;;;;;;;1.67;65.84;101060.02;107233;1255;1016318;-72
2023/04/03 00:44:30;;;;;;;3.60;1.60;;;;;;;1.59;66.20;101065.02;107208;1256;1015936;-72
2023/04/03 00:49:23;;;;;;;3.60;1.90;;;;;;;1.52;66.39;101066.84;107286;1256;1074381;-72
2023/04/03 00:54:16;;;;;;;3.70;1.60;;;;;;;1.45;66.03;101066.58;107298;1253;1016429;-72
2023/04/03 00:59:14;;;;;;;3.90;1.50;;;;;;;1.37;65.92;101071.75;107278;1254;1016438;-73
2023/04/03 01:04:32;;;;;;;2.10;1.30;;;;;;;1.29;65.81;101065.30;107285;1254;1050515;-72
2023/04/03 01:09:26;;;;;;;1.70;1.30;;;;;;;1.23;66.08;101070.91;107225;1254;1057990;-72
2023/04/03 01:14:20;;;;;;;3.60;1.30;;;;;;;1.17;65.66;101086.42;107243;1256;1016255;-72
2023/04/03 01:19:17;;;;;;;2.80;1.20;;;;;;;1.09;65.71;101089.77;107267;1256;1016371;-72
2023/04/03 01:24:16;;;;;;;1.70;1.40;;;;;;;1.02;65.41;101094.59;107213;1255;1070534;-72
2023/04/03 01:29:09;;;;;;;4.60;1.60;;;;;;;0.97;65.95;101101.64;107370;1255;1051102;-72
2023/04/03 01:34:03;;;;;;;1.60;1.00;;;;;;;0.91;65.24;101109.45;107250;1254;1016446;-72
2023/04/03 01:38:59;;;;;;;1.60;1.20;;;;;;;0.86;65.21;101110.31;107353;1254;1016173;-72
2023/04/03 01:43:52;;;;;;;2.80;1.10;;;;;;;0.78;65.49;101116.14;107297;1254;1065176;-72
2023/04/03 01:48:46;;;;;;;2.60;1.50;;;;;;;0.68;65.40;101121.85;107228;1253;1016355;-72
2023/04/03 01:53:39;;;;;;;1.70;1.20;;;;;;;0.62;65.56;101127.75;107229;1254;1016431;-72
2023/04/03 01:58:32;;;;;;;2.10;1.20;;;;;;;0.56;65.22;101130.27;107354;1253;1016426;-72
2023/04/03 02:03:26;;;;;;;2.10;1.00;;;;;;;0.50;65.25;101131.42;107397;1254;1016642;-72
2023/04/03 02:08:18;;;;;;;2.50;1.30;;;;;;;0.42;65.07;101138.75;107322;1254;1016415;-72
2023/04/03 02:13:12;;;;;;;4.30;1.30;;;;;;;0.35;65.36;101138.88;107392;1255;1016298;-71
2023/04/03 02:18:05;;;;;;;2.00;1.10;;;;;;;0.30;65.33;101141.42;107284;1254;1017865;-73
2023/04/03 02:23:00;;;;;;;2.70;1.10;;;;;;;0.24;65.39;101148.89;107260;1254;1016714;-72
2023/04/03 02:27:53;;;;;;;1.60;1.10;;;;;;;0.19;65.24;101151.27;107356;1256;1017160;-72
2023/04/03 02:32:46;;;;;;;4.40;0.80;;;;;;;0.13;65.31;101152.56;107030;1254;1015865;-73
2023/04/03 02:37:39;;;;;;;4.10;1.10;;;;;;;0.08;65.32;101155.30;107336;1255;1071285;-73
2023/04/03 02:42:33;;;;;;;1.60;1.50;;;;;;;0.02;65.13;101154.23;107222;1253;1016455;-73
2023/04/03 02:47:29;;;;;;;5.50;1.40;;;;;;;-0.05;65.50;101153.30;107495;1254;1059512;-73
2023/04/03 02:52:22;;;;;;;2.50;1.60;;;;;;;-0.10;65.48;101160.14;107460;1254;1016066;-72
2023/04/03 02:57:15;;;;;;;2.20;1.40;;;;;;;-0.14;65.39;101167.02;107288;1254;1016479;-72
2023/04/03 03:02:09;;;;;;;3.10;1.30;;;;;;;-0.18;65.45;101167.23;107239;1254;1016404;-72
2023/04/03 03:07:02;;;;;;;1.80;1.10;;;;;;;-0.22;65.54;101164.23;107274;1254;1016117;-72
2023/04/03 03:11:57;;;;;;;3.20;1.10;;;;;;;-0.27;65.32;101165.44;107247;1254;1016494;-73
2023/04/03 03:16:50;;;;;;;1.70;1.50;;;;;;;-0.31;65.52;101169.21;107210;1254;1016179;-73
2023/04/03 03:21:43;;;;;;;3.40;1.10;;;;;;;-0.37;65.77;101173.58;107197;1254;1016272;-72
2023/04/03 03:26:36;;;;;;;1.70;0.80;;;;;;;-0.42;65.84;101178.40;107306;1257;1019146;-72
2023/04/03 03:31:29;;;;;;;1.00;0.80;;;;;;;-0.49;65.96;101180.27;107155;1254;1016427;-73
2023/04/03 03:36:22;;;;;;;3.40;0.80;;;;;;;-0.58;65.98;101181.21;107366;1253;1016439;-72
2023/04/03 03:41:15;;;;;;;1.50;0.80;;;;;;;-0.63;66.30;101181.20;107293;1254;1016309;-72
2023/04/03 03:46:09;;;;;;;2.80;1.00;;;;;;;-0.67;66.15;101185.73;107211;1254;1016446;-73
2023/04/03 03:51:02;;;;;;;1.50;1.40;;;;;;;-0.69;66.23;101187.59;107287;1254;1016449;-73
2023/04/03 03:55:58;;;;;;;2.10;0.80;;;;;;;-0.75;66.39;101188.73;107273;1254;1051507;-72
2023/04/03 04:00:52;;;;;;;2.40;1.10;;;;;;;-0.79;66.46;101195.44;107220;1254;1016384;-72
2023/04/03 04:05:49;;;;;;;3.30;1.40;;;;;;;-0.82;66.46;101198.63;107271;1254;1016355;-73
2023/04/03 04:10:42;;;;;;;5.00;1.10;;;;;;;-0.83;66.67;101199.58;107297;1252;1064879;-73
2023/04/03 04:15:37;;;;;;;1.50;1.00;;;;;;;-0.88;66.58;101203.83;107228;1253;1071317;-73
2023/04/03 04:20:31;;;;;;;2.10;1.10;;;;;;;-0.90;66.76;101206.03;107356;1254;1016454;-72
2023/04/03 04:25:24;;;;;;;1.20;0.90;;;;;;;-0.91;66.70;101214.13;107193;1253;1016266;-72
2023/04/03 04:30:18;;;;;;;2.40;1.00;;;;;;;-0.90;66.79;101213.84;107234;1254;1016315;-73
2023/04/03 04:35:13;;;;;;;1.60;0.90;;;;;;;-0.91;66.71;101219.29;107202;1253;1066175;-72
2023/04/03 04:40:10;;;;;;;3.10;1.10;;;;;;;-0.90;66.67;101224.95;107248;1254;1071291;-73
2023/04/03 04:45:05;;;;;;;2.40;1.10;;;;;;;-0.90;66.79;101230.21;107248;1254;1050630;-72
2023/04/03 04:49:58;;;;;;;2.40;1.30;;;;;;;-0.88;66.73;101227.98;107256;1257;1015979;-72
2023/04/03 04:54:52;;;;;;;2.90;1.10;;;;;;;-0.86;66.68;101232.23;107112;1253;1016299;-72
2023/04/03 04:59:46;;;;;;;2.60;1.60;;;;;;;-0.84;66.65;101242.10;107166;1254;1016455;-73
2023/04/03 05:04:39;;;;;;;3.00;1.60;;;;;;;-0.81;66.71;101245.84;107288;1253;1016218;-73
2023/04/03 05:09:37;;;;;;;3.50;2.30;;;;;;;-0.81;66.73;101249.95;107689;1254;1051251;-73
2023/04/03 05:14:31;;;;;;;25.90;15.60;;;;;;;-0.76;66.50;101253.50;107499;1252;1017971;-73
2023/04/03 05:19:27;;;;;;;14.10;6.90;;;;;;;-0.72;66.39;101260.58;107994;1254;1073886;-73
2023/04/03 05:24:21;;;;;;;5.20;3.40;;;;;;;-0.69;66.58;101265.72;107188;1253;1016416;-73
2023/04/03 05:29:18;;;;;;;4.70;2.40;;;;;;;-0.68;66.38;101272.47;107209;1254;1071924;-73
2023/04/03 05:34:11;;;;;;;3.20;2.00;;;;;;;-0.63;66.55;101272.98;107207;1253;1016091;-73
2023/04/03 05:39:05;;;;;;;8.60;6.70;;;;;;;-0.61;66.27;101277.38;107282;1253;1016195;-72
2023/04/03 05:44:01;;;;;;;5.80;2.90;;;;;;;-0.56;66.17;101282.14;107271;1253;1072107;-72
2023/04/03 05:48:54;;;;;;;18.40;13.40;;;;;;;-0.53;66.05;101290.06;107268;1256;1016219;-72
2023/04/03 05:53:48;;;;;;;6.30;4.70;;;;;;;-0.46;66.09;101293.09;107281;1253;1017214;-72
2023/04/03 05:58:42;;;;;;;3.30;2.20;;;;;;;-0.37;65.88;101292.16;107239;1254;1016545;-72
2023/04/03 06:03:35;;;;;;;2.80;1.90;;;;;;;-0.25;65.89;101293.70;107251;1254;1016281;-72
2023/04/03 06:08:32;;;;;;;2.40;1.40;;;;;;;-0.13;65.67;101290.28;107263;1256;1072949;-72
2023/04/03 06:13:25;;;;;;;3.20;1.70;;;;;;;-0.06;65.26;101291.46;107219;1254;1018417;-72
2023/04/03 06:18:18;;;;;;;5.90;2.80;;;;;;;0.02;65.42;101297.77;107190;1257;1016504;-72
2023/04/03 06:23:13;;;;;;;6.40;3.20;;;;;;;0.20;65.05;101302.19;107219;1253;1016448;-73
2023/04/03 06:28:10;;;;;;;5.10;3.00;;;;;;;0.29;64.89;101305.05;107222;1254;1058893;-72
2023/04/03 06:33:03;;;;;;;4.40;2.10;;;;;;;0.37;64.38;101314.14;107273;1254;1072529;-73
2023/04/03 06:37:56;;;;;;;11.80;5.40;;;;;;;0.45;64.56;101315.34;107198;1254;1016413;-72
2023/04/03 06:42:49;;;;;;;4.70;2.00;;;;;;;0.45;64.39;101315.67;107235;1253;1015937;-73
2023/04/03 06:47:43;;;;;;;3.20;2.30;;;;;;;0.46;64.16;101316.07;107234;1256;1016413;-73
2023/04/03 06:52:36;;;;;;;6.50;4.80;;;;;;;0.51;64.23;101315.40;107231;1256;1016329;-72
2023/04/03 06:57:29;;;;;;;5.40;2.10;;;;;;;0.66;64.43;101318.80;107246;1256;1016462;-72
2023/04/03 07:02:22;;;;;;;5.30;2.60;;;;;;;0.79;63.80;101325.41;107255;1256;1016444;-71
2023/04/03 07:07:15;;;;;;;8.40;3.30;;;;;;;0.97;63.48;101331.06;107218;1253;1017083;-72
2023/04/03 07:12:08;;;;;;;8.50;4.10;;;;;;;1.39;63.14;101332.91;107285;1253;1016102;-72
2023/04/03 07:17:00;;;;;;;7.80;3.10;;;;;;;1.56;62.78;101336.00;107286;1253;1016251;-72
2023/04/03 07:21:53;;;;;;;6.40;2.70;;;;;;;1.61;62.48;101338.04;107276;1253;1015738;-71
2023/04/03 07:26:51;;;;;;;6.80;2.60;;;;;;;2.81;61.26;101337.89;107309;1256;1016439;-72
2023/04/03 07:31:44;;;;;;;4.90;2.90;;;;;;;7.07;56.12;101326.92;107248;1252;1074051;-73
2023/04/03 07:36:37;;;;;;;6.80;4.50;;;;;;;9.94;52.96;101329.45;107268;1253;1016287;-74
2023/04/03 07:41:30;;;;;;;7.70;5.10;;;;;;;13.54;49.23;101323.55;107311;1253;1016367;-74
2023/04/03 07:46:24;;;;;;;4.20;2.50;;;;;;;16.56;45.95;101322.56;107356;1254;1016333;-73
2023/04/03 07:51:17;;;;;;;2.10;1.50;;;;;;;17.81;43.14;101330.42;107345;1254;1016487;-72
2023/04/03 07:56:10;;;;;;;2.30;1.80;;;;;;;16.89;43.03;101328.56;107279;1254;1017081;-73
2023/04/03 08:01:03;;;;;;;3.60;2.00;;;;;;;16.47;41.64;101324.13;107268;1254;1019434;-73
2023/04/03 08:06:04;;;;;;;4.90;2.60;;;;;;;16.58;40.70;101329.75;107297;1256;1016628;-75
2023/04/03 08:11:00;;;;;;;4.60;2.20;;;;;;;14.80;41.69;101335.09;107315;1254;1073162;-73
2023/04/03 08:15:54;;;;;;;4.30;2.00;;;;;;;13.81;41.22;101335.59;107321;1253;1017372;-73
2023/04/03 08:20:47;;;;;;;3.50;2.00;;;;;;;16.38;38.51;101329.38;107283;1253;1016327;-74
2023/04/03 08:25:41;;;;;;;3.00;2.40;;;;;;;16.73;38.81;101329.25;107286;1254;1015729;-75
2023/04/03 08:30:34;;;;;;;1.60;1.30;;;;;;;15.82;38.17;101339.42;107319;1253;1058295;-73
2023/04/03 08:35:27;;;;;;;3.30;2.50;;;;;;;14.61;37.23;101348.64;107264;1257;1019167;-73
2023/04/03 08:40:21;;;;;;;1.50;1.40;;;;;;;12.74;38.93;101347.98;107242;1253;1016423;-73
2023/04/03 08:45:21;;;;;;;4.80;1.80;;;;;;;12.30;38.97;101343.66;107316;1253;1018441;-72
2023/04/03 08:50:21;;;;;;;2.10;1.50;;;;;;;11.92;38.80;101347.89;107252;1254;1050516;-72
2023/04/03 08:55:34;;;;;;;1.30;1.20;;;;;;;12.00;38.16;101350.30;107243;1253;1058100;-72
2023/04/03 09:00:33;;;;;;;1.40;1.10;;;;;;;11.14;38.08;101353.17;107307;1253;1073007;-72
2023/04/03 09:05:48;;;;;;;2.10;1.50;;;;;;;11.12;39.16;101346.33;107392;1252;1065453;-72
2023/04/03 09:10:42;;;;;;;2.10;1.40;;;;;;;11.96;37.92;101347.14;107293;1254;1071352;-73
2023/04/03 09:15:35;;;;;;;1.40;1.20;;;;;;;11.33;38.48;101352.29;107208;1253;1016478;-72
2023/04/03 09:20:41;;;;;;;1.50;1.30;;;;;;;11.59;36.43;101357.41;107382;1253;1058265;-72
2023/04/03 09:25:38;;;;;;;1.30;1.20;;;;;;;10.49;36.92;101357.55;107287;1254;1073244;-72
2023/04/03 09:30:31;;;;;;;1.50;1.20;;;;;;;10.46;37.50;101364.76;107359;1256;1064958;-72
2023/04/03 09:35:25;;;;;;;1.50;1.20;;;;;;;10.78;37.71;101366.67;107242;1254;1016665;-72
2023/04/03 09:41:02;;;;;;;2.60;1.60;;;;;;;12.89;35.53;101360.02;107199;1253;1051397;-72
2023/04/03 09:45:57;;;;;;;2.10;1.80;;;;;;;14.78;33.05;101351.89;107246;1256;1062095;-73
2023/04/03 09:51:01;;;;;;;2.50;1.40;;;;;;;15.11;32.78;101357.94;107287;1253;1072783;-73
2023/04/03 09:55:54;;;;;;;2.10;1.50;;;;;;;13.47;34.28;101363.95;107283;1256;1065888;-72
2023/04/03 10:00:55;;;;;;;1.70;1.20;;;;;;;12.95;34.78;101369.58;107272;1254;1015959;-72
2023/04/03 10:05:50;;;;;;;3.00;1.60;;;;;;;13.67;34.09;101365.55;107211;1253;1050978;-73
2023/04/03 10:10:46;;;;;;;4.20;1.80;;;;;;;16.54;32.38;101350.48;107229;1254;1058693;-73
2023/04/03 10:16:05;;;;;;;1.50;1.40;;;;;;;15.52;32.73;101372.38;107340;1253;1072358;-73
2023/04/03 10:21:12;;;;;;;1.80;1.60;;;;;;;15.13;33.00;101371.44;107259;1256;1066631;-73
2023/04/03 10:26:40;;;;;;;1.50;1.30;;;;;;;18.41;31.01;101351.02;107320;1253;1070952;-74
2023/04/03 10:31:50;;;;;;;1.50;1.40;;;;;;;19.12;29.87;101362.04;107276;1253;1050803;-73
2023/04/03 10:36:58;;;;;;;1.50;1.40;;;;;;;19.58;29.07;101351.05;107374;1253;1058682;-73
2023/04/03 10:42:03;;;;;;;1.40;1.20;;;;;;;19.86;29.18;101351.64;107353;1253;1072737;-74
2023/04/03 10:47:28;;;;;;;1.70;1.50;;;;;;;20.22;26.96;101350.55;107259;1253;1064365;-74
2023/04/03 10:52:32;;;;;;;;;;;;;;;21.08;28.05;101340.49;107328;1252;1070629;-72
2023/04/03 10:57:29;;;;;;;1.50;1.40;;;;;;;20.16;26.36;101337.86;107250;1253;1051373;-74
2023/04/03 11:02:49;;;;;;;1.80;1.30;;;;;;;16.24;27.92;101358.66;107296;1253;1060883;-73
2023/04/03 11:07:50;;;;;;;1.80;1.10;;;;;;;16.09;29.53;101345.06;107283;1253;1072789;-73
2023/04/03 11:12:52;;;;;;;4.70;1.30;;;;;;;15.40;29.91;101351.95;107335;1253;1063541;-73
2023/04/03 11:17:55;;;;;;;1.10;1.00;;;;;;;12.58;31.21;101360.30;107325;1253;1069527;-72
2023/04/03 11:22:55;;;;;;;1.20;1.10;;;;;;;11.65;32.21;101354.73;107298;1256;1054118;-74
2023/04/03 11:27:51;;;;;;;1.80;1.20;;;;;;;11.80;31.97;101362.33;107350;1253;1057972;-73
2023/04/03 11:32:53;;;;;;;1.10;1.10;;;;;;;10.15;33.67;101365.77;107321;1253;1073554;-73
2023/04/03 11:37:51;;;;;;;1.30;1.10;;;;;;;10.25;34.01;101362.04;107321;1253;1064834;-73
2023/04/03 11:42:55;;;;;;;3.30;1.20;;;;;;;11.71;33.16;101350.38;107276;1253;1075169;-73
2023/04/03 11:47:51;;;;;;;1.90;1.20;;;;;;;10.49;34.11;101358.41;107343;1254;1051009;-73
2023/04/03 11:52:46;;;;;;;1.30;1.00;;;;;;;9.40;34.39;101353.80;107326;1253;1058009;-73
2023/04/03 11:57:47;;;;;;;2.10;1.30;;;;;;;9.73;35.13;101349.30;107385;1253;1072451;-73
2023/04/03 12:02:41;;;;;;;1.30;1.10;;;;;;;9.16;35.24;101357.36;107254;1253;1064776;-73
2023/04/03 12:08:24;;;;;;;1.30;1.00;;;;;;;9.31;34.92;101350.23;107360;1253;1070880;-72
2023/04/03 12:13:18;;;;;;;2.10;1.60;;;;;;;9.80;34.82;101346.74;107300;1256;1051310;-72
2023/04/03 12:18:42;;;;;;;1.10;1.00;;;;;;;9.52;36.04;101341.56;107313;1254;1015929;-73
2023/04/03 12:23:38;;;;;;;1.60;0.90;;;;;;;8.94;36.11;101346.94;107308;1254;1073074;-72
2023/04/03 12:28:38;;;;;;;2.60;1.50;;;;;;;8.66;35.55;101350.48;107343;1253;1065601;-72
2023/04/03 12:34:00;;;;;;;2.30;1.20;;;;;;;9.02;36.22;101336.67;107297;1256;1071007;-73
2023/04/03 12:39:22;;;;;;;2.80;1.60;;;;;;;9.29;36.52;101332.52;107271;1253;1050780;-73
2023/04/03 12:44:40;;;;;;;3.20;1.30;;;;;;;8.91;36.06;101342.69;107331;1256;1058380;-73
2023/04/03 12:49:44;;;;;;;4.00;1.50;;;;;;;8.61;35.68;101347.52;107318;1254;1075454;-73
2023/04/03 12:54:40;;;;;;;2.00;1.20;;;;;;;8.01;36.21;101345.00;107326;1253;1064304;-72
2023/04/03 12:59:33;;;;;;;2.30;1.30;;;;;;;7.89;37.08;101343.01;107316;1254;1070761;-73
2023/04/03 13:04:29;;;;;;;1.40;0.90;;;;;;;8.47;37.04;101342.05;107323;1253;1016957;-72
2023/04/03 13:09:27;;;;;;;1.50;1.40;;;;;;;8.87;36.55;101334.45;107362;1253;1058362;-73
2023/04/03 13:14:26;;;;;;;4.20;1.30;;;;;;;8.85;36.63;101339.88;107377;1254;1075544;-72
2023/04/03 13:19:19;;;;;;;1.40;1.00;;;;;;;9.12;35.71;101332.88;107390;1253;1064858;-73
2023/04/03 13:24:12;;;;;;;0.90;0.80;;;;;;;9.05;36.16;101328.48;107338;1254;1016372;-73
2023/04/03 13:29:20;;;;;;;1.50;1.30;;;;;;;8.80;36.11;101324.50;107376;1254;1051177;-73
2023/04/03 13:34:21;;;;;;;2.00;1.20;;;;;;;8.40;36.62;101330.54;107263;1254;1058507;-72
2023/04/03 13:39:14;;;;;;;4.10;1.60;;;;;;;8.45;37.13;101330.38;107358;1253;1072585;-71
2023/04/03 13:44:29;;;;;;;1.50;1.00;;;;;;;8.83;36.09;101326.70;107329;1254;1015977;-72
2023/04/03 13:49:40;;;;;;;2.20;1.50;;;;;;;8.67;36.30;101324.05;107287;1254;1070816;-72
2023/04/03 13:54:37;;;;;;;3.50;1.40;;;;;;;8.98;36.42;101322.52;107362;1253;1052315;-73
2023/04/03 13:59:33;;;;;;;3.10;1.60;;;;;;;9.34;36.39;101326.81;107384;1256;1058678;-72
2023/04/03 14:04:32;;;;;;;2.10;1.30;;;;;;;9.06;35.98;101339.89;107388;1253;1073241;-73
2023/04/03 14:09:28;;;;;;;1.20;1.00;;;;;;;8.39;36.06;101341.40;107398;1254;1066232;-73
2023/04/03 14:14:30;;;;;;;2.40;1.80;;;;;;;7.89;36.91;101344.73;107368;1253;1070525;-73
2023/04/03 14:19:28;;;;;;;1.80;1.60;;;;;;;7.65;37.15;101341.23;107321;1257;1051164;-73
2023/04/03 14:24:21;;;;;;;;;;;;;;;7.52;37.90;101342.62;107400;1253;1058338;-73
2023/04/03 14:29:15;;;;;;;1.50;1.30;;;;;;;7.34;37.92;101343.63;107415;1256;1016444;-73
2023/04/03 14:34:08;;;;;;;1.30;1.20;;;;;;;7.09;37.83;101340.20;107248;1253;1125985;-71
2023/04/03 14:39:01;;;;;;;3.10;2.20;;;;;;;6.83;38.51;101337.05;107273;1254;1016152;-73
2023/04/03 14:43:55;;;;;;;13.30;7.60;;;;;;;6.68;38.78;101338.84;107287;1253;1016221;-73
2023/04/03 14:48:49;;;;;;;5.30;2.90;;;;;;;6.61;39.41;101351.64;107430;1252;1016314;-72
2023/04/03 14:53:44;;;;;;;5.90;2.60;;;;;;;6.61;39.20;101353.52;107312;1253;1018655;-72
2023/04/03 14:58:37;;;;;;;1.80;1.40;;;;;;;6.52;39.33;101351.08;107357;1253;1065263;-72
2023/04/03 15:03:30;;;;;;;3.10;1.80;;;;;;;6.29;39.42;101357.11;107289;1253;1016067;-72
2023/04/03 15:08:29;;;;;;;3.40;2.10;;;;;;;6.07;39.72;101358.05;107378;1252;1015955;-72
2023/04/03 15:13:22;;;;;;;4.10;2.30;;;;;;;5.91;40.04;101350.23;107370;1253;1058322;-72
2023/04/03 15:18:21;;;;;;;3.40;1.90;;;;;;;5.90;40.03;101348.64;107275;1254;1018496;-72
2023/04/03 15:23:15;;;;;;;13.00;9.40;;;;;;;5.89;40.01;101349.09;107318;1254;1065795;-72
2023/04/03 15:28:15;;;;;;;29.00;24.80;;;;;;;5.87;40.31;101346.95;107305;1254;1070426;-72
2023/04/03 15:33:08;;;;;;;7.00;4.40;;;;;;;5.81;40.52;101354.21;107330;1256;1051559;-72
2023/04/03 15:38:01;;;;;;;3.90;1.80;;;;;;;5.73;40.22;101354.02;107368;1255;1016527;-72
2023/04/03 15:42:53;;;;;;;18.50;11.90;;;;;;;5.69;40.32;101354.71;107388;1253;1016541;-72
2023/04/03 15:47:46;;;;;;;4.70;2.50;;;;;;;5.64;40.57;101355.35;107321;1253;1016339;-72
2023/04/03 15:52:39;;;;;;;13.40;6.00;;;;;;;5.51;40.64;101354.05;107376;1258;1016134;-72
2023/04/03 15:57:32;;;;;;;3.60;2.70;;;;;;;5.43;40.94;101349.67;107326;1253;1016402;-72
2023/04/03 16:02:30;;;;;;;3.90;2.00;;;;;;;5.36;40.99;101347.48;107322;1254;1057842;-73
2023/04/03 16:07:23;;;;;;;14.30;8.40;;;;;;;5.30;41.46;101343.95;107310;1253;1016497;-73
2023/04/03 16:12:16;;;;;;;5.50;2.90;;;;;;;5.28;41.58;101340.58;107370;1257;1016402;-72
2023/04/03 16:17:08;;;;;;;4.20;2.50;;;;;;;5.22;41.80;101346.63;107254;1254;1018281;-71
2023/04/03 16:22:02;;;;;;;4.40;2.20;;;;;;;5.17;41.88;101355.49;107327;1254;1016674;-72
2023/04/03 16:26:55;;;;;;;7.60;4.20;;;;;;;5.02;42.07;101353.37;107255;1256;1016657;-72
2023/04/03 16:31:48;;;;;;;3.30;1.80;;;;;;;4.89;42.37;101350.50;107341;1257;1016490;-71
2023/04/03 16:36:41;;;;;;;2.60;2.40;;;;;;;4.84;42.48;101352.13;107275;1253;1015920;-72
2023/04/03 16:41:34;;;;;;;2.60;1.80;;;;;;;4.78;42.32;101353.73;107315;1254;1016627;-72
2023/04/03 16:46:27;;;;;;;5.10;3.40;;;;;;;4.71;42.33;101363.99;107261;1253;1016533;-72
2023/04/03 16:51:20;;;;;;;6.10;4.30;;;;;;;4.62;42.43;101362.20;107350;1256;1016342;-71
2023/04/03 16:56:13;;;;;;;3.70;1.90;;;;;;;4.56;42.93;101365.30;107263;1254;1016253;-71
2023/04/03 17:01:17;;;;;;;7.80;3.30;;;;;;;4.46;42.85;101369.96;107203;1256;1016409;-71
2023/04/03 17:06:15;;;;;;;17.90;11.30;;;;;;;4.38;43.26;101372.11;107262;1253;1070890;-71
2023/04/03 17:11:09;;;;;;;9.90;9.00;;;;;;;4.33;43.28;101375.95;107219;1254;1051672;-71
2023/04/03 17:16:06;;;;;;;9.00;6.70;;;;;;;4.29;43.40;101377.27;107244;1253;1018053;-71
2023/04/03 17:20:59;;;;;;;18.60;13.20;;;;;;;4.24;43.52;101382.18;107240;1254;1072103;-72
2023/04/03 17:25:53;;;;;;;19.30;13.80;;;;;;;4.17;43.66;101382.14;107148;1253;1016289;-72
2023/04/03 17:30:47;;;;;;;11.50;8.00;;;;;;;4.08;44.15;101387.33;107193;1256;1016140;-72
2023/04/03 17:35:39;;;;;;;10.10;7.00;;;;;;;4.05;44.10;101391.98;107175;1253;1018092;-72
2023/04/03 17:40:33;;;;;;;11.20;5.80;;;;;;;4.00;43.96;101401.32;107175;1254;1016002;-73
2023/04/03 17:45:26;;;;;;;23.70;10.90;;;;;;;3.97;44.37;101399.61;107175;1257;1016168;-72
2023/04/03 17:50:20;;;;;;;6.60;4.50;;;;;;;3.92;44.21;101404.30;107232;1254;1016193;-72
2023/04/03 17:55:16;;;;;;;8.60;6.00;;;;;;;3.90;44.26;101409.66;107229;1254;1073538;-73
2023/04/03 18:00:10;;;;;;;20.50;10.70;;;;;;;3.88;44.33;101409.55;107319;1254;1052009;-73
2023/04/03 18:05:07;;;;;;;8.10;4.50;;;;;;;3.83;44.68;101414.27;107223;1254;1059157;-73
2023/04/03 18:10:03;;;;;;;5.50;3.30;;;;;;;3.78;44.48;101413.66;107293;1256;1072901;-72
2023/04/03 18:14:57;;;;;;;17.50;10.20;;;;;;;3.75;44.82;101413.52;107158;1254;1065603;-72
2023/04/03 18:19:51;;;;;;;13.90;10.10;;;;;;;3.76;44.71;101414.06;107182;1253;1016351;-72
2023/04/03 18:24:44;;;;;;;11.40;6.70;;;;;;;3.74;44.88;101416.36;107204;1254;1016390;-71
2023/04/03 18:29:40;;;;;;;20.90;11.70;;;;;;;3.69;45.08;101418.99;107206;1253;1016195;-72
2023/04/03 18:34:33;;;;;;;21.20;12.00;;;;;;;3.66;45.03;101420.53;107245;1254;1072597;-72
2023/04/03 18:39:26;;;;;;;17.30;11.00;;;;;;;3.63;45.02;101425.52;107194;1256;1016326;-72
2023/04/03 18:44:23;;;;;;;13.90;10.20;;;;;;;3.61;45.08;101424.55;107148;1257;1017641;-71
2023/04/03 18:49:17;;;;;;;8.00;4.50;;;;;;;3.59;45.25;101423.08;107279;1256;1051140;-71
2023/04/03 18:54:10;;;;;;;6.60;4.60;;;;;;;3.56;45.55;101421.02;107307;1254;1016272;-72
2023/04/03 18:59:03;;;;;;;9.20;6.50;;;;;;;3.56;45.27;101424.96;107244;1256;1016322;-72
2023/04/03 19:03:56;;;;;;;7.10;5.10;;;;;;;3.53;45.39;101423.04;107294;1254;1016444;-72
2023/04/03 19:08:51;;;;;;;10.00;6.90;;;;;;;3.49;45.60;101421.61;107209;1254;1016866;-72
2023/04/03 19:13:44;;;;;;;6.00;4.20;;;;;;;3.44;45.90;101423.95;107237;1256;1051246;-71
2023/04/03 19:18:55;;;;;;;6.40;5.10;;;;;;;3.39;46.23;101421.08;107301;1255;1058472;-72
2023/04/03 19:23:48;;;;;;;7.80;6.30;;;;;;;3.36;46.39;101423.11;107204;1258;1016214;-72
2023/04/03 19:28:42;;;;;;;10.20;6.20;;;;;;;3.29;46.41;101422.08;107286;1254;1016257;-72
2023/04/03 19:33:36;;;;;;;11.30;7.30;;;;;;;3.27;46.76;101428.27;107202;1254;1072104;-72
2023/04/03 19:38:29;;;;;;;10.40;5.70;;;;;;;3.23;47.15;101433.17;107253;1254;1018442;-72
2023/04/03 19:43:22;;;;;;;9.70;6.20;;;;;;;3.17;47.32;101437.80;107336;1254;1016313;-71
2023/04/03 19:48:15;;;;;;;17.60;10.40;;;;;;;3.13;47.84;101436.34;107285;1257;1016575;-72
2023/04/03 19:53:13;;;;;;;10.60;5.50;;;;;;;3.12;48.02;101440.54;107159;1256;1016921;-72
2023/04/03 19:58:06;;;;;;;10.90;6.20;;;;;;;3.05;48.33;101444.65;107164;1254;1070987;-72
2023/04/03 20:03:00;;;;;;;14.00;10.60;;;;;;;3.00;48.61;101451.54;107200;1257;1016460;-72
2023/04/03 20:07:54;;;;;;;13.60;9.40;;;;;;;2.98;48.99;101449.69;107232;1254;1016078;-72
2023/04/03 20:12:50;;;;;;;19.10;11.00;;;;;;;2.98;49.19;101445.76;107325;1254;1074126;-72
2023/04/03 20:17:44;;;;;;;15.10;7.50;;;;;;;2.96;49.19;101446.34;107198;1254;1018342;-71
2023/04/03 20:22:38;;;;;;;14.30;8.90;;;;;;;2.90;49.76;101443.75;107281;1254;1016795;-72
2023/04/03 20:27:32;;;;;;;14.10;7.40;;;;;;;2.85;50.11;101440.35;107194;1254;1050643;-72
2023/04/03 20:32:26;;;;;;;13.80;6.70;;;;;;;2.76;50.06;101438.64;107255;1255;1016245;-72
2023/04/03 20:37:22;;;;;;;10.90;5.90;;;;;;;2.71;50.47;101442.77;107151;1255;1073116;-71
2023/04/03 20:42:15;;;;;;;8.30;5.20;;;;;;;2.64;50.74;101436.72;107069;1254;1067701;-71
2023/04/03 20:47:09;;;;;;;8.40;4.60;;;;;;;2.61;50.86;101439.78;107158;1254;1016101;-71
2023/04/03 20:52:03;;;;;;;17.20;8.80;;;;;;;2.55;50.94;101442.86;107168;1254;1019073;-72
2023/04/03 20:56:56;;;;;;;7.80;5.40;;;;;;;2.50;51.15;101443.39;107267;1254;1016094;-72
2023/04/03 21:01:49;;;;;;;7.30;4.70;;;;;;;2.46;51.31;101445.23;107211;1254;1016557;-72
2023/04/03 21:07:20;;;;;;;5.10;4.00;;;;;;;2.43;51.84;101444.48;107269;1254;1016619;-72
2023/04/03 21:12:51;;;;;;;6.50;4.60;;;;;;;2.37;51.82;101442.27;107217;1254;1073920;-72
2023/04/03 21:18:02;;;;;;;6.90;4.20;;;;;;;2.33;52.01;101445.80;107217;1254;1050776;-71
2023/04/03 21:22:55;;;;;;;6.40;4.50;;;;;;;2.31;52.28;101444.99;107121;1254;1058924;-71
2023/04/03 21:27:48;;;;;;;6.90;4.80;;;;;;;2.25;52.51;101443.95;107089;1257;1016507;-72
2023/04/03 21:32:41;;;;;;;14.10;7.90;;;;;;;2.19;52.58;101444.94;107115;1254;1016888;-72
2023/04/03 21:37:34;;;;;;;7.10;3.60;;;;;;;2.17;52.82;101447.17;107116;1253;1016382;-72
2023/04/03 21:42:27;;;;;;;5.40;4.00;;;;;;;2.13;52.89;101448.83;107114;1254;1016188;-72
2023/04/03 21:47:20;;;;;;;12.80;6.40;;;;;;;2.09;53.30;101447.70;107031;1254;1016232;-71
2023/04/03 21:52:14;;;;;;;8.90;5.10;;;;;;;2.04;52.86;101448.13;106908;1254;1015857;-72
2023/04/03 21:57:10;;;;;;;12.60;7.50;;;;;;;2.00;53.08;101444.92;107086;1254;1016010;-72
2023/04/03 22:02:03;;;;;;;8.70;4.30;;;;;;;1.97;53.50;101443.02;107028;1254;1073586;-71
2023/04/03 22:06:57;;;;;;;8.80;5.00;;;;;;;1.95;53.42;101443.59;107192;1254;1016441;-72
2023/04/03 22:11:50;;;;;;;6.30;4.20;;;;;;;1.93;53.57;101439.48;107178;1254;1016232;-72
2023/04/03 22:16:45;;;;;;;8.40;5.20;;;;;;;1.89;53.74;101442.23;107077;1253;1017288;-72